sensor_id;sensor_type;location;lat;lon;timestamp;temperature;humidity
54824;DHT22;40724;53.196;5.980;2023-06-05T09:42:01;15.50;99.90
54824;DHT22;40724;53.196;5.980;2023-06-05T10:37:08;17.10;99.90
54824;DHT22;40724;53.196;5.980;2023-06-05T10:39:40;17.10;99.90
54824;DHT22;40724;53.196;5.980;2023-06-05T10:42:06;17.10;99.90
54824;DHT22;40724;53.196;5.980;2023-06-05T10:44:39;17.20;99.90
54824;DHT22;40724;53.196;5.980;2023-06-05T10:52:42;17.30;99.90
54824;DHT22;40724;53.196;5.980;2023-06-05T10:55:09;17.30;99.90
54824;DHT22;40724;53.196;5.980;2023-06-05T10:58:12;17.30;99.90
54824;DHT22;40724;53.196;5.980;2023-06-05T11:01:16;17.30;99.90
54824;DHT22;40724;53.196;5.980;2023-06-05T11:03:57;17.30;99.90
54824;DHT22;40724;53.196;5.980;2023-06-05T11:06:23;17.20;99.90
54824;DHT22;40724;53.196;5.980;2023-06-05T11:09:09;17.30;99.90
54824;DHT22;40724;53.196;5.980;2023-06-05T11:11:54;17.20;99.90
54824;DHT22;40724;53.196;5.980;2023-06-05T11:14:20;17.10;99.90
54824;DHT22;40724;53.196;5.980;2023-06-05T11:16:46;17.20;99.90
54824;DHT22;40724;53.196;5.980;2023-06-05T11:24:28;17.30;99.90
54824;DHT22;40724;53.196;5.980;2023-06-05T11:26:54;17.40;99.90
54824;DHT22;40724;53.196;5.980;2023-06-05T11:29:20;17.40;99.90
54824;DHT22;40724;53.196;5.980;2023-06-05T11:31:48;17.50;99.90
54824;DHT22;40724;53.196;5.980;2023-06-05T11:34:14;17.50;99.90
54824;DHT22;40724;53.196;5.980;2023-06-05T11:36:40;17.50;99.90
54824;DHT22;40724;53.196;5.980;2023-06-05T11:39:06;17.60;99.90
54824;DHT22;40724;53.196;5.980;2023-06-05T12:11:36;17.60;99.90
54824;DHT22;40724;53.196;5.980;2023-06-05T12:14:03;18.10;99.90
54824;DHT22;40724;53.196;5.980;2023-06-05T15:57:26;18.10;99.90
54824;DHT22;40724;53.196;5.980;2023-06-05T15:59:52;17.80;98.60
54824;DHT22;40724;53.196;5.980;2023-06-05T16:02:19;17.80;98.50
54824;DHT22;40724;53.196;5.980;2023-06-05T16:04:46;17.70;98.60
54824;DHT22;40724;53.196;5.980;2023-06-05T16:07:12;17.70;98.70
54824;DHT22;40724;53.196;5.980;2023-06-05T16:09:38;17.70;98.70
54824;DHT22;40724;53.196;5.980;2023-06-05T16:12:04;17.70;98.60
54824;DHT22;40724;53.196;5.980;2023-06-05T16:14:30;17.70;98.50
54824;DHT22;40724;53.196;5.980;2023-06-05T16:16:56;17.60;98.50
54824;DHT22;40724;53.196;5.980;2023-06-05T16:39:02;17.60;98.50
54824;DHT22;40724;53.196;5.980;2023-06-05T16:41:29;17.30;98.30
54824;DHT22;40724;53.196;5.980;2023-06-05T16:43:55;17.20;98.30
54824;DHT22;40724;53.196;5.980;2023-06-05T16:46:20;17.20;98.30
54824;DHT22;40724;53.196;5.980;2023-06-05T16:48:49;17.20;98.30
54824;DHT22;40724;53.196;5.980;2023-06-05T16:51:17;17.10;98.30
54824;DHT22;40724;53.196;5.980;2023-06-05T16:53:42;17.00;98.20
54824;DHT22;40724;53.196;5.980;2023-06-05T16:56:08;17.00;98.30
54824;DHT22;40724;53.196;5.980;2023-06-05T16:58:36;17.00;98.40
54824;DHT22;40724;53.196;5.980;2023-06-05T17:01:02;16.90;98.50
54824;DHT22;40724;53.196;5.980;2023-06-05T17:03:28;16.80;98.50
54824;DHT22;40724;53.196;5.980;2023-06-05T17:05:54;16.80;98.50
54824;DHT22;40724;53.196;5.980;2023-06-05T17:08:20;16.80;98.60
54824;DHT22;40724;53.196;5.980;2023-06-05T17:10:46;16.80;98.70
54824;DHT22;40724;53.196;5.980;2023-06-05T17:13:12;16.70;98.70
54824;DHT22;40724;53.196;5.980;2023-06-05T17:15:38;16.60;98.70
54824;DHT22;40724;53.196;5.980;2023-06-05T17:18:04;16.60;98.70
54824;DHT22;40724;53.196;5.980;2023-06-05T17:20:30;16.50;98.80
